sensor_id;sensor_type;location;lat;lon;timestamp;P1;durP1;ratioP1;P2;durP2;ratioP2
25083;SDS011;13075;55.682;37.564;2022-12-18T00:02:05;15.95;;;8.85;;
25083;SDS011;13075;55.682;37.564;2022-12-18T00:04:31;20.23;;;9.27;;
25083;SDS011;13075;55.682;37.564;2022-12-18T00:06:56;15.50;;;8.60;;
25083;SDS011;13075;55.682;37.564;2022-12-18T00:09:22;11.98;;;7.65;;
25083;SDS011;13075;55.682;37.564;2022-12-18T00:11:48;18.75;;;9.48;;
25083;SDS011;13075;55.682;37.564;2022-12-18T00:14:14;11.68;;;7.97;;
25083;SDS011;13075;55.682;37.564;2022-12-18T00:16:42;16.33;;;9.13;;
25083;SDS011;13075;55.682;37.564;2022-12-18T00:19:09;12.65;;;8.30;;
25083;SDS011;13075;55.682;37.564;2022-12-18T00:21:35;14.02;;;8.55;;
25083;SDS011;13075;55.682;37.564;2022-12-18T00:24:01;15.52;;;8.57;;
25083;SDS011;13075;55.682;37.564;2022-12-18T00:26:30;14.00;;;7.93;;
25083;SDS011;13075;55.682;37.564;2022-12-18T00:29:01;13.85;;;8.02;;
25083;SDS011;13075;55.682;37.564;2022-12-18T00:31:29;10.80;;;6.68;;
25083;SDS011;13075;55.682;37.564;2022-12-18T00:33:55;12.85;;;7.60;;
25083;SDS011;13075;55.682;37.564;2022-12-18T00:36:23;16.20;;;6.15;;
25083;SDS011;13075;55.682;37.564;2022-12-18T00:38:53;16.95;;;9.27;;
25083;SDS011;13075;55.682;37.564;2022-12-18T00:41:21;16.48;;;9.02;;
25083;SDS011;13075;55.682;37.564;2022-12-18T00:44:06;14.75;;;7.47;;
25083;SDS011;13075;55.682;37.564;2022-12-18T00:46:33;15.27;;;8.23;;
25083;SDS011;13075;55.682;37.564;2022-12-18T00:48:59;14.68;;;7.97;;
25083;SDS011;13075;55.682;37.564;2022-12-18T00:51:25;14.20;;;7.88;;
25083;SDS011;13075;55.682;37.564;2022-12-18T00:53:51;14.13;;;8.23;;
25083;SDS011;13075;55.682;37.564;2022-12-18T00:56:17;13.80;;;8.30;;
25083;SDS011;13075;55.682;37.564;2022-12-18T00:58:43;11.80;;;7.43;;
25083;SDS011;13075;55.682;37.564;2022-12-18T01:01:09;18.48;;;8.18;;
25083;SDS011;13075;55.682;37.564;2022-12-18T01:03:35;18.38;;;9.05;;
25083;SDS011;13075;55.682;37.564;2022-12-18T01:06:07;15.15;;;8.70;;
25083;SDS011;13075;55.682;37.564;2022-12-18T01:08:35;17.73;;;8.77;;
25083;SDS011;13075;55.682;37.564;2022-12-18T01:11:06;6.10;;;3.60;;
25083;SDS011;13075;55.682;37.564;2022-12-18T01:13:33;13.40;;;7.65;;
25083;SDS011;13075;55.682;37.564;2022-12-18T01:15:59;19.08;;;8.13;;
25083;SDS011;13075;55.682;37.564;2022-12-18T01:18:25;19.38;;;7.95;;
25083;SDS011;13075;55.682;37.564;2022-12-18T01:20:50;18.20;;;8.13;;
25083;SDS011;13075;55.682;37.564;2022-12-18T01:23:16;12.90;;;6.82;;
25083;SDS011;13075;55.682;37.564;2022-12-18T01:25:41;16.17;;;8.40;;
25083;SDS011;13075;55.682;37.564;2022-12-18T01:28:08;17.23;;;8.50;;
25083;SDS011;13075;55.682;37.564;2022-12-18T01:30:34;17.02;;;8.07;;
25083;SDS011;13075;55.682;37.564;2022-12-18T01:33:00;18.48;;;8.45;;
25083;SDS011;13075;55.682;37.564;2022-12-18T01:35:26;12.82;;;7.80;;
25083;SDS011;13075;55.682;37.564;2022-12-18T01:37:55;13.07;;;6.28;;
25083;SDS011;13075;55.682;37.564;2022-12-18T01:40:21;10.90;;;7.45;;
25083;SDS011;13075;55.682;37.564;2022-12-18T01:42:51;14.43;;;7.63;;
25083;SDS011;13075;55.682;37.564;2022-12-18T01:50:25;13.65;;;7.57;;
25083;SDS011;13075;55.682;37.564;2022-12-18T01:55:44;11.68;;;7.40;;
25083;SDS011;13075;55.682;37.564;2022-12-18T01:58:12;13.27;;;7.97;;
25083;SDS011;13075;55.682;37.564;2022-12-18T02:00:38;13.40;;;7.88;;
25083;SDS011;13075;55.682;37.564;2022-12-18T02:03:04;15.80;;;8.63;;
25083;SDS011;13075;55.682;37.564;2022-12-18T02:11:01;11.43;;;7.05;;
25083;SDS011;13075;55.682;37.564;2022-12-18T02:13:54;17.23;;;8.70;;
25083;SDS011;13075;55.682;37.564;2022-12-18T02:16:24;17.23;;;7.70;;
25083;SDS011;13075;55.682;37.564;2022-12-18T02:19:15;12.18;;;6.10;;
25083;SDS011;13075;55.682;37.564;2022-12-18T02:21:55;12.45;;;7.13;;
25083;SDS011;13075;55.682;37.564;2022-12-18T02:24:35;15.00;;;5.85;;
25083;SDS011;13075;55.682;37.564;2022-12-18T02:27:15;12.50;;;7.00;;
25083;SDS011;13075;55.682;37.564;2022-12-18T02:29:44;16.67;;;8.13;;
25083;SDS011;13075;55.682;37.564;2022-12-18T02:32:17;16.02;;;8.00;;
25083;SDS011;13075;55.682;37.564;2022-12-18T02:34:51;12.90;;;8.05;;
25083;SDS011;13075;55.682;37.564;2022-12-18T02:37:21;13.90;;;7.88;;
25083;SDS011;13075;55.682;37.564;2022-12-18T02:39:49;12.57;;;6.35;;
25083;SDS011;13075;55.682;37.564;2022-12-18T02:42:17;14.50;;;8.35;;
25083;SDS011;13075;55.682;37.564;2022-12-18T02:44:45;13.63;;;6.60;;
25083;SDS011;13075;55.682;37.564;2022-12-18T02:47:17;15.40;;;7.07;;
25083;SDS011;13075;55.682;37.564;2022-12-18T02:52:33;10.50;;;6.97;;
25083;SDS011;13075;55.682;37.564;2022-12-18T02:55:13;15.68;;;7.97;;
25083;SDS011;13075;55.682;37.564;2022-12-18T02:57:56;15.55;;;8.73;;
25083;SDS011;13075;55.682;37.564;2022-12-18T03:00:37;17.95;;;8.38;;
25083;SDS011;13075;55.682;37.564;2022-12-18T03:05:53;16.95;;;7.82;;
25083;SDS011;13075;55.682;37.564;2022-12-18T03:08:25;11.90;;;7.13;;
25083;SDS011;13075;55.682;37.564;2022-12-18T03:10:57;13.52;;;8.10;;
25083;SDS011;13075;55.682;37.564;2022-12-18T03:13:28;14.38;;;8.15;;
25083;SDS011;13075;55.682;37.564;2022-12-18T03:16:01;10.73;;;5.75;;
25083;SDS011;13075;55.682;37.564;2022-12-18T03:18:32;15.40;;;6.53;;
25083;SDS011;13075;55.682;37.564;2022-12-18T03:21:03;12.27;;;6.85;;
25083;SDS011;13075;55.682;37.564;2022-12-18T03:23:35;14.68;;;8.25;;
25083;SDS011;13075;55.682;37.564;2022-12-18T03:26:07;10.95;;;6.63;;
25083;SDS011;13075;55.682;37.564;2022-12-18T03:28:38;14.48;;;7.32;;
25083;SDS011;13075;55.682;37.564;2022-12-18T03:31:08;13.02;;;7.78;;
25083;SDS011;13075;55.682;37.564;2022-12-18T03:33:39;12.82;;;7.15;;
25083;SDS011;13075;55.682;37.564;2022-12-18T03:36:13;17.63;;;7.95;;
25083;SDS011;13075;55.682;37.564;2022-12-18T03:38:40;15.57;;;7.32;;
25083;SDS011;13075;55.682;37.564;2022-12-18T03:47:27;11.05;;;7.32;;
25083;SDS011;13075;55.682;37.564;2022-12-18T03:49:47;10.65;;;6.50;;
25083;SDS011;13075;55.682;37.564;2022-12-18T03:52:58;11.30;;;6.75;;
25083;SDS011;13075;55.682;37.564;2022-12-18T03:55:32;10.40;;;5.85;;
25083;SDS011;13075;55.682;37.564;2022-12-18T03:58:03;18.00;;;6.57;;
25083;SDS011;13075;55.682;37.564;2022-12-18T04:00:42;17.92;;;7.80;;
25083;SDS011;13075;55.682;37.564;2022-12-18T04:03:10;12.48;;;7.15;;
25083;SDS011;13075;55.682;37.564;2022-12-18T04:05:44;9.68;;;6.88;;
25083;SDS011;13075;55.682;37.564;2022-12-18T04:08:13;10.45;;;6.15;;
25083;SDS011;13075;55.682;37.564;2022-12-18T04:10:44;12.23;;;7.03;;
25083;SDS011;13075;55.682;37.564;2022-12-18T04:13:11;14.80;;;7.15;;
25083;SDS011;13075;55.682;37.564;2022-12-18T04:15:36;9.35;;;6.40;;
25083;SDS011;13075;55.682;37.564;2022-12-18T04:18:07;11.80;;;7.45;;
25083;SDS011;13075;55.682;37.564;2022-12-18T04:20:39;12.20;;;7.32;;
25083;SDS011;13075;55.682;37.564;2022-12-18T04:23:04;13.93;;;7.07;;
25083;SDS011;13075;55.682;37.564;2022-12-18T04:25:31;10.90;;;6.63;;
25083;SDS011;13075;55.682;37.564;2022-12-18T04:28:05;10.18;;;6.45;;
25083;SDS011;13075;55.682;37.564;2022-12-18T04:30:32;13.00;;;6.45;;
25083;SDS011;13075;55.682;37.564;2022-12-18T04:32:58;8.77;;;6.00;;
25083;SDS011;13075;55.682;37.564;2022-12-18T04:35:23;18.38;;;7.32;;
25083;SDS011;13075;55.682;37.564;2022-12-18T04:37:49;13.07;;;5.70;;
25083;SDS011;13075;55.682;37.564;2022-12-18T04:40:15;11.63;;;6.88;;
25083;SDS011;13075;55.682;37.564;2022-12-18T04:42:44;14.30;;;7.88;;
25083;SDS011;13075;55.682;37.564;2022-12-18T04:45:10;12.07;;;6.72;;
25083;SDS011;13075;55.682;37.564;2022-12-18T04:47:35;10.30;;;5.93;;
25083;SDS011;13075;55.682;37.564;2022-12-18T04:50:01;9.20;;;5.75;;
25083;SDS011;13075;55.682;37.564;2022-12-18T04:52:27;8.63;;;5.85;;
25083;SDS011;13075;55.682;37.564;2022-12-18T04:54:53;12.45;;;6.82;;
25083;SDS011;13075;55.682;37.564;2022-12-18T04:57:18;9.95;;;5.90;;
25083;SDS011;13075;55.682;37.564;2022-12-18T04:59:44;11.80;;;7.15;;
25083;SDS011;13075;55.682;37.564;2022-12-18T05:02:10;14.57;;;6.72;;
25083;SDS011;13075;55.682;37.564;2022-12-18T05:04:36;12.13;;;6.35;;
25083;SDS011;13075;55.682;37.564;2022-12-18T05:07:01;9.45;;;6.13;;
25083;SDS011;13075;55.682;37.564;2022-12-18T05:09:27;11.05;;;6.93;;
25083;SDS011;13075;55.682;37.564;2022-12-18T05:11:52;12.88;;;7.03;;
25083;SDS011;13075;55.682;37.564;2022-12-18T05:14:18;11.63;;;6.25;;
25083;SDS011;13075;55.682;37.564;2022-12-18T05:16:44;10.50;;;5.70;;
25083;SDS011;13075;55.682;37.564;2022-12-18T05:19:10;11.75;;;7.05;;
25083;SDS011;13075;55.682;37.564;2022-12-18T05:21:35;9.07;;;5.80;;
25083;SDS011;13075;55.682;37.564;2022-12-18T05:24:01;11.85;;;6.78;;
25083;SDS011;13075;55.682;37.564;2022-12-18T05:26:27;13.32;;;6.47;;
25083;SDS011;13075;55.682;37.564;2022-12-18T05:28:52;10.15;;;6.38;;
25083;SDS011;13075;55.682;37.564;2022-12-18T05:31:18;10.50;;;6.43;;
25083;SDS011;13075;55.682;37.564;2022-12-18T05:33:43;8.77;;;6.53;;
25083;SDS011;13075;55.682;37.564;2022-12-18T05:36:09;21.20;;;10.55;;
25083;SDS011;13075;55.682;37.564;2022-12-18T05:38:35;11.48;;;6.10;;
25083;SDS011;13075;55.682;37.564;2022-12-18T05:41:02;10.80;;;6.72;;
25083;SDS011;13075;55.682;37.564;2022-12-18T05:43:28;16.85;;;6.50;;
25083;SDS011;13075;55.682;37.564;2022-12-18T05:45:54;9.60;;;6.25;;
25083;SDS011;13075;55.682;37.564;2022-12-18T05:48:22;13.80;;;7.70;;
25083;SDS011;13075;55.682;37.564;2022-12-18T05:50:48;11.70;;;6.93;;
25083;SDS011;13075;55.682;37.564;2022-12-18T05:53:16;10.57;;;6.07;;
25083;SDS011;13075;55.682;37.564;2022-12-18T05:55:44;11.65;;;6.93;;
25083;SDS011;13075;55.682;37.564;2022-12-18T05:58:11;13.43;;;5.97;;
25083;SDS011;13075;55.682;37.564;2022-12-18T06:00:39;12.18;;;6.75;;
25083;SDS011;13075;55.682;37.564;2022-12-18T06:03:07;15.98;;;9.18;;
25083;SDS011;13075;55.682;37.564;2022-12-18T06:05:37;9.88;;;6.20;;
25083;SDS011;13075;55.682;37.564;2022-12-18T06:08:04;10.80;;;7.43;;
25083;SDS011;13075;55.682;37.564;2022-12-18T06:10:30;11.13;;;6.43;;
25083;SDS011;13075;55.682;37.564;2022-12-18T06:12:56;11.45;;;6.80;;
25083;SDS011;13075;55.682;37.564;2022-12-18T06:15:21;12.85;;;6.90;;
25083;SDS011;13075;55.682;37.564;2022-12-18T06:17:47;12.60;;;7.63;;
25083;SDS011;13075;55.682;37.564;2022-12-18T06:20:13;12.30;;;7.15;;
25083;SDS011;13075;55.682;37.564;2022-12-18T06:22:38;9.73;;;5.63;;
25083;SDS011;13075;55.682;37.564;2022-12-18T06:25:04;9.95;;;5.97;;
25083;SDS011;13075;55.682;37.564;2022-12-18T06:27:31;12.40;;;6.18;;
25083;SDS011;13075;55.682;37.564;2022-12-18T06:29:58;9.85;;;5.85;;
25083;SDS011;13075;55.682;37.564;2022-12-18T06:32:25;12.68;;;6.95;;
25083;SDS011;13075;55.682;37.564;2022-12-18T06:34:50;11.75;;;7.00;;
25083;SDS011;13075;55.682;37.564;2022-12-18T06:37:16;12.48;;;6.65;;
25083;SDS011;13075;55.682;37.564;2022-12-18T06:39:42;14.60;;;6.85;;
25083;SDS011;13075;55.682;37.564;2022-12-18T06:42:07;10.05;;;6.55;;
25083;SDS011;13075;55.682;37.564;2022-12-18T06:44:33;9.82;;;6.03;;
25083;SDS011;13075;55.682;37.564;2022-12-18T06:46:58;11.90;;;6.20;;
25083;SDS011;13075;55.682;37.564;2022-12-18T06:49:24;5.22;;;4.55;;
25083;SDS011;13075;55.682;37.564;2022-12-18T06:51:50;11.23;;;6.40;;
25083;SDS011;13075;55.682;37.564;2022-12-18T06:54:15;11.50;;;6.45;;
25083;SDS011;13075;55.682;37.564;2022-12-18T06:56:41;14.38;;;7.90;;
25083;SDS011;13075;55.682;37.564;2022-12-18T06:59:06;10.40;;;5.75;;
25083;SDS011;13075;55.682;37.564;2022-12-18T07:01:32;11.30;;;6.47;;
25083;SDS011;13075;55.682;37.564;2022-12-18T07:03:58;9.25;;;5.88;;
25083;SDS011;13075;55.682;37.564;2022-12-18T07:06:24;11.50;;;6.13;;
25083;SDS011;13075;55.682;37.564;2022-12-18T07:08:50;11.85;;;6.43;;
25083;SDS011;13075;55.682;37.564;2022-12-18T07:11:17;13.68;;;6.45;;
25083;SDS011;13075;55.682;37.564;2022-12-18T07:13:44;10.05;;;6.35;;
25083;SDS011;13075;55.682;37.564;2022-12-18T07:16:11;13.23;;;6.78;;
25083;SDS011;13075;55.682;37.564;2022-12-18T07:18:39;12.77;;;6.35;;
25083;SDS011;13075;55.682;37.564;2022-12-18T07:21:05;9.90;;;6.10;;
25083;SDS011;13075;55.682;37.564;2022-12-18T07:23:32;10.57;;;6.03;;
25083;SDS011;13075;55.682;37.564;2022-12-18T07:26:09;9.10;;;5.88;;
25083;SDS011;13075;55.682;37.564;2022-12-18T07:28:37;9.93;;;6.07;;
25083;SDS011;13075;55.682;37.564;2022-12-18T07:31:04;10.23;;;5.93;;
25083;SDS011;13075;55.682;37.564;2022-12-18T07:33:34;12.23;;;6.25;;
25083;SDS011;13075;55.682;37.564;2022-12-18T07:36:01;9.10;;;5.80;;
25083;SDS011;13075;55.682;37.564;2022-12-18T07:38:28;10.65;;;5.75;;
25083;SDS011;13075;55.682;37.564;2022-12-18T07:40:54;14.35;;;7.15;;
25083;SDS011;13075;55.682;37.564;2022-12-18T07:43:25;9.30;;;6.32;;
25083;SDS011;13075;55.682;37.564;2022-12-18T07:45:50;11.77;;;7.15;;
25083;SDS011;13075;55.682;37.564;2022-12-18T07:48:16;11.30;;;6.53;;
25083;SDS011;13075;55.682;37.564;2022-12-18T07:50:41;11.05;;;5.07;;
25083;SDS011;13075;55.682;37.564;2022-12-18T07:53:07;12.30;;;6.70;;
25083;SDS011;13075;55.682;37.564;2022-12-18T07:55:32;12.77;;;6.10;;
25083;SDS011;13075;55.682;37.564;2022-12-18T07:58:02;13.35;;;7.70;;
25083;SDS011;13075;55.682;37.564;2022-12-18T08:00:28;10.32;;;5.85;;
25083;SDS011;13075;55.682;37.564;2022-12-18T08:02:54;10.35;;;6.07;;
25083;SDS011;13075;55.682;37.564;2022-12-18T08:05:19;13.07;;;6.00;;
25083;SDS011;13075;55.682;37.564;2022-12-18T08:07:46;10.43;;;6.30;;
25083;SDS011;13075;55.682;37.564;2022-12-18T08:10:11;10.45;;;5.85;;
25083;SDS011;13075;55.682;37.564;2022-12-18T08:12:37;10.65;;;5.82;;
25083;SDS011;13075;55.682;37.564;2022-12-18T08:15:03;13.10;;;6.72;;
25083;SDS011;13075;55.682;37.564;2022-12-18T08:17:29;8.18;;;6.15;;
25083;SDS011;13075;55.682;37.564;2022-12-18T08:19:55;12.07;;;6.38;;
25083;SDS011;13075;55.682;37.564;2022-12-18T08:22:20;10.82;;;5.90;;
25083;SDS011;13075;55.682;37.564;2022-12-18T08:24:46;10.40;;;6.45;;
25083;SDS011;13075;55.682;37.564;2022-12-18T08:27:12;11.27;;;5.82;;
25083;SDS011;13075;55.682;37.564;2022-12-18T08:29:37;10.00;;;5.50;;
25083;SDS011;13075;55.682;37.564;2022-12-18T08:32:03;11.02;;;6.13;;
25083;SDS011;13075;55.682;37.564;2022-12-18T08:34:29;10.40;;;6.47;;
25083;SDS011;13075;55.682;37.564;2022-12-18T08:36:54;9.23;;;6.75;;
25083;SDS011;13075;55.682;37.564;2022-12-18T08:39:20;11.52;;;6.88;;
25083;SDS011;13075;55.682;37.564;2022-12-18T08:41:45;13.07;;;6.78;;
25083;SDS011;13075;55.682;37.564;2022-12-18T08:44:31;17.48;;;6.13;;
25083;SDS011;13075;55.682;37.564;2022-12-18T08:47:02;14.05;;;7.80;;
25083;SDS011;13075;55.682;37.564;2022-12-18T08:49:28;12.18;;;6.88;;
25083;SDS011;13075;55.682;37.564;2022-12-18T08:51:54;12.88;;;5.15;;
25083;SDS011;13075;55.682;37.564;2022-12-18T08:54:22;8.43;;;5.28;;
25083;SDS011;13075;55.682;37.564;2022-12-18T08:56:48;12.23;;;6.60;;
25083;SDS011;13075;55.682;37.564;2022-12-18T08:59:15;9.02;;;5.40;;
25083;SDS011;13075;55.682;37.564;2022-12-18T09:01:44;10.95;;;5.75;;
25083;SDS011;13075;55.682;37.564;2022-12-18T09:04:10;10.00;;;5.43;;
25083;SDS011;13075;55.682;37.564;2022-12-18T09:06:36;10.57;;;5.22;;
25083;SDS011;13075;55.682;37.564;2022-12-18T09:09:02;17.25;;;5.53;;
25083;SDS011;13075;55.682;37.564;2022-12-18T09:11:28;8.10;;;5.20;;
25083;SDS011;13075;55.682;37.564;2022-12-18T09:13:55;9.73;;;5.00;;
25083;SDS011;13075;55.682;37.564;2022-12-18T09:16:22;9.93;;;5.70;;
25083;SDS011;13075;55.682;37.564;2022-12-18T09:18:49;10.07;;;5.63;;
25083;SDS011;13075;55.682;37.564;2022-12-18T09:21:16;9.45;;;5.68;;
25083;SDS011;13075;55.682;37.564;2022-12-18T09:23:43;10.20;;;6.00;;
25083;SDS011;13075;55.682;37.564;2022-12-18T09:26:09;9.77;;;5.53;;
25083;SDS011;13075;55.682;37.564;2022-12-18T09:28:35;8.38;;;5.57;;
25083;SDS011;13075;55.682;37.564;2022-12-18T09:31:05;11.10;;;6.32;;
25083;SDS011;13075;55.682;37.564;2022-12-18T09:33:33;9.13;;;5.00;;
25083;SDS011;13075;55.682;37.564;2022-12-18T09:36:02;9.80;;;5.85;;
25083;SDS011;13075;55.682;37.564;2022-12-18T09:38:30;9.23;;;5.82;;
25083;SDS011;13075;55.682;37.564;2022-12-18T09:40:57;11.50;;;6.30;;
25083;SDS011;13075;55.682;37.564;2022-12-18T09:43:33;11.02;;;6.05;;
25083;SDS011;13075;55.682;37.564;2022-12-18T09:46:07;11.13;;;5.90;;
25083;SDS011;13075;55.682;37.564;2022-12-18T09:48:40;9.77;;;5.70;;
25083;SDS011;13075;55.682;37.564;2022-12-18T09:51:19;9.30;;;5.55;;
25083;SDS011;13075;55.682;37.564;2022-12-18T09:53:56;10.80;;;5.47;;
25083;SDS011;13075;55.682;37.564;2022-12-18T10:01:26;11.40;;;5.70;;
25083;SDS011;13075;55.682;37.564;2022-12-18T10:03:53;10.07;;;5.35;;
25083;SDS011;13075;55.682;37.564;2022-12-18T10:20:16;11.43;;;4.97;;
25083;SDS011;13075;55.682;37.564;2022-12-18T10:25:19;11.45;;;4.95;;
25083;SDS011;13075;55.682;37.564;2022-12-18T10:28:07;7.60;;;4.70;;
25083;SDS011;13075;55.682;37.564;2022-12-18T10:30:36;9.27;;;5.55;;
25083;SDS011;13075;55.682;37.564;2022-12-18T10:33:04;11.48;;;5.50;;
25083;SDS011;13075;55.682;37.564;2022-12-18T10:35:30;8.45;;;4.65;;
25083;SDS011;13075;55.682;37.564;2022-12-18T10:43:14;9.55;;;5.30;;
25083;SDS011;13075;55.682;37.564;2022-12-18T10:45:44;8.23;;;4.80;;
25083;SDS011;13075;55.682;37.564;2022-12-18T10:48:27;9.05;;;5.03;;
25083;SDS011;13075;55.682;37.564;2022-12-18T10:50:55;12.45;;;5.72;;
25083;SDS011;13075;55.682;37.564;2022-12-18T10:53:25;10.02;;;5.40;;
25083;SDS011;13075;55.682;37.564;2022-12-18T10:55:53;8.80;;;4.88;;
25083;SDS011;13075;55.682;37.564;2022-12-18T11:03:46;10.73;;;6.15;;
25083;SDS011;13075;55.682;37.564;2022-12-18T11:06:25;10.05;;;6.13;;
25083;SDS011;13075;55.682;37.564;2022-12-18T11:09:04;7.75;;;4.97;;
25083;SDS011;13075;55.682;37.564;2022-12-18T11:11:31;11.23;;;5.85;;
25083;SDS011;13075;55.682;37.564;2022-12-18T11:16:27;7.70;;;4.72;;
25083;SDS011;13075;55.682;37.564;2022-12-18T11:19:06;7.15;;;3.95;;
25083;SDS011;13075;55.682;37.564;2022-12-18T11:21:47;9.70;;;4.72;;
25083;SDS011;13075;55.682;37.564;2022-12-18T11:24:17;11.07;;;5.32;;
25083;SDS011;13075;55.682;37.564;2022-12-18T11:26:48;8.40;;;4.65;;
25083;SDS011;13075;55.682;37.564;2022-12-18T11:29:18;7.68;;;5.22;;
25083;SDS011;13075;55.682;37.564;2022-12-18T11:35:03;8.60;;;4.75;;
25083;SDS011;13075;55.682;37.564;2022-12-18T11:37:36;9.27;;;4.63;;
25083;SDS011;13075;55.682;37.564;2022-12-18T11:40:10;9.60;;;5.43;;
25083;SDS011;13075;55.682;37.564;2022-12-18T11:42:40;10.13;;;5.50;;
25083;SDS011;13075;55.682;37.564;2022-12-18T11:47:47;7.68;;;4.80;;
25083;SDS011;13075;55.682;37.564;2022-12-18T11:50:18;8.90;;;4.13;;
25083;SDS011;13075;55.682;37.564;2022-12-18T11:52:48;10.80;;;5.32;;
25083;SDS011;13075;55.682;37.564;2022-12-18T11:55:14;7.78;;;4.75;;
25083;SDS011;13075;55.682;37.564;2022-12-18T12:00:27;11.35;;;5.60;;
25083;SDS011;13075;55.682;37.564;2022-12-18T12:05:49;26.70;;;11.45;;
25083;SDS011;13075;55.682;37.564;2022-12-18T12:08:33;7.15;;;4.68;;
25083;SDS011;13075;55.682;37.564;2022-12-18T12:16:51;10.15;;;5.40;;
25083;SDS011;13075;55.682;37.564;2022-12-18T12:19:28;6.43;;;4.15;;
25083;SDS011;13075;55.682;37.564;2022-12-18T12:24:53;9.40;;;4.18;;
25083;SDS011;13075;55.682;37.564;2022-12-18T12:38:09;8.60;;;3.88;;
25083;SDS011;13075;55.682;37.564;2022-12-18T12:40:54;6.97;;;3.83;;
25083;SDS011;13075;55.682;37.564;2022-12-18T12:43:36;10.07;;;4.78;;
25083;SDS011;13075;55.682;37.564;2022-12-18T12:46:07;7.88;;;4.30;;
25083;SDS011;13075;55.682;37.564;2022-12-18T12:53:46;10.43;;;4.10;;
25083;SDS011;13075;55.682;37.564;2022-12-18T12:56:14;8.13;;;4.13;;
25083;SDS011;13075;55.682;37.564;2022-12-18T12:58:45;7.05;;;3.72;;
25083;SDS011;13075;55.682;37.564;2022-12-18T13:06:45;5.45;;;3.35;;
25083;SDS011;13075;55.682;37.564;2022-12-18T13:09:21;9.95;;;4.72;;
25083;SDS011;13075;55.682;37.564;2022-12-18T13:11:47;11.75;;;4.35;;
25083;SDS011;13075;55.682;37.564;2022-12-18T13:14:38;6.53;;;4.00;;
25083;SDS011;13075;55.682;37.564;2022-12-18T13:19:50;5.65;;;3.03;;
25083;SDS011;13075;55.682;37.564;2022-12-18T13:22:25;9.48;;;4.30;;
25083;SDS011;13075;55.682;37.564;2022-12-18T13:24:55;8.43;;;3.60;;
25083;SDS011;13075;55.682;37.564;2022-12-18T13:45:49;14.20;;;6.05;;
25083;SDS011;13075;55.682;37.564;2022-12-18T13:48:24;14.93;;;6.78;;
25083;SDS011;13075;55.682;37.564;2022-12-18T13:50:53;13.43;;;7.20;;
25083;SDS011;13075;55.682;37.564;2022-12-18T13:53:24;12.73;;;7.05;;
25083;SDS011;13075;55.682;37.564;2022-12-18T13:55:53;13.88;;;7.75;;
25083;SDS011;13075;55.682;37.564;2022-12-18T13:58:20;24.95;;;8.60;;
25083;SDS011;13075;55.682;37.564;2022-12-18T14:00:45;17.45;;;7.82;;
25083;SDS011;13075;55.682;37.564;2022-12-18T14:03:22;18.80;;;8.05;;
25083;SDS011;13075;55.682;37.564;2022-12-18T14:05:57;18.73;;;7.72;;
25083;SDS011;13075;55.682;37.564;2022-12-18T14:08:27;17.98;;;8.07;;
25083;SDS011;13075;55.682;37.564;2022-12-18T14:10:58;23.20;;;8.27;;
25083;SDS011;13075;55.682;37.564;2022-12-18T14:13:26;17.73;;;7.55;;
25083;SDS011;13075;55.682;37.564;2022-12-18T14:15:55;17.02;;;7.25;;
25083;SDS011;13075;55.682;37.564;2022-12-18T14:21:26;13.38;;;7.38;;
25083;SDS011;13075;55.682;37.564;2022-12-18T14:24:11;21.70;;;9.07;;
25083;SDS011;13075;55.682;37.564;2022-12-18T14:26:40;14.73;;;8.07;;
25083;SDS011;13075;55.682;37.564;2022-12-18T14:34:39;12.40;;;7.10;;
25083;SDS011;13075;55.682;37.564;2022-12-18T14:37:05;18.30;;;7.65;;
25083;SDS011;13075;55.682;37.564;2022-12-18T14:39:34;13.18;;;6.78;;
25083;SDS011;13075;55.682;37.564;2022-12-18T14:42:00;11.68;;;5.60;;
25083;SDS011;13075;55.682;37.564;2022-12-18T14:44:25;12.55;;;6.47;;
25083;SDS011;13075;55.682;37.564;2022-12-18T14:46:51;12.77;;;6.43;;
25083;SDS011;13075;55.682;37.564;2022-12-18T14:49:27;15.23;;;6.63;;
25083;SDS011;13075;55.682;37.564;2022-12-18T14:51:57;11.48;;;5.63;;
25083;SDS011;13075;55.682;37.564;2022-12-18T14:54:25;11.93;;;5.93;;
25083;SDS011;13075;55.682;37.564;2022-12-18T14:57:05;14.50;;;6.40;;
25083;SDS011;13075;55.682;37.564;2022-12-18T14:59:43;14.25;;;7.00;;
25083;SDS011;13075;55.682;37.564;2022-12-18T15:02:18;10.82;;;5.95;;
25083;SDS011;13075;55.682;37.564;2022-12-18T15:07:50;10.52;;;5.38;;
25083;SDS011;13075;55.682;37.564;2022-12-18T15:10:18;9.40;;;5.15;;
25083;SDS011;13075;55.682;37.564;2022-12-18T15:20:53;9.32;;;4.07;;
25083;SDS011;13075;55.682;37.564;2022-12-18T15:25:58;7.50;;;4.25;;
25083;SDS011;13075;55.682;37.564;2022-12-18T15:34:10;7.20;;;4.28;;
25083;SDS011;13075;55.682;37.564;2022-12-18T15:36:38;8.63;;;4.95;;
25083;SDS011;13075;55.682;37.564;2022-12-18T15:39:04;7.95;;;4.60;;
25083;SDS011;13075;55.682;37.564;2022-12-18T15:41:30;10.43;;;5.05;;
25083;SDS011;13075;55.682;37.564;2022-12-18T15:43:58;10.27;;;6.15;;
25083;SDS011;13075;55.682;37.564;2022-12-18T15:46:24;7.65;;;4.97;;
25083;SDS011;13075;55.682;37.564;2022-12-18T15:48:55;7.32;;;5.28;;
25083;SDS011;13075;55.682;37.564;2022-12-18T15:51:32;8.40;;;5.72;;
25083;SDS011;13075;55.682;37.564;2022-12-18T15:54:01;12.75;;;6.32;;
25083;SDS011;13075;55.682;37.564;2022-12-18T15:56:28;10.88;;;5.35;;
25083;SDS011;13075;55.682;37.564;2022-12-18T15:59:15;7.13;;;5.03;;
25083;SDS011;13075;55.682;37.564;2022-12-18T16:01:43;17.95;;;6.25;;
25083;SDS011;13075;55.682;37.564;2022-12-18T16:04:14;9.52;;;5.13;;
25083;SDS011;13075;55.682;37.564;2022-12-18T16:06:41;9.52;;;5.55;;
25083;SDS011;13075;55.682;37.564;2022-12-18T16:09:08;10.50;;;5.18;;
25083;SDS011;13075;55.682;37.564;2022-12-18T16:11:34;7.93;;;4.85;;
25083;SDS011;13075;55.682;37.564;2022-12-18T16:14:23;6.63;;;4.50;;
25083;SDS011;13075;55.682;37.564;2022-12-18T16:16:59;12.50;;;5.28;;
25083;SDS011;13075;55.682;37.564;2022-12-18T16:19:27;7.55;;;4.45;;
25083;SDS011;13075;55.682;37.564;2022-12-18T16:21:54;10.50;;;5.85;;
25083;SDS011;13075;55.682;37.564;2022-12-18T16:24:21;11.15;;;5.20;;
25083;SDS011;13075;55.682;37.564;2022-12-18T16:26:49;7.57;;;5.25;;
25083;SDS011;13075;55.682;37.564;2022-12-18T16:29:19;10.68;;;6.00;;
25083;SDS011;13075;55.682;37.564;2022-12-18T16:31:50;14.57;;;5.78;;
25083;SDS011;13075;55.682;37.564;2022-12-18T16:34:23;9.82;;;5.95;;
25083;SDS011;13075;55.682;37.564;2022-12-18T16:37:04;9.70;;;5.75;;
25083;SDS011;13075;55.682;37.564;2022-12-18T16:39:31;11.07;;;5.82;;
25083;SDS011;13075;55.682;37.564;2022-12-18T16:41:59;13.60;;;7.57;;
25083;SDS011;13075;55.682;37.564;2022-12-18T16:44:26;10.63;;;6.05;;
25083;SDS011;13075;55.682;37.564;2022-12-18T16:46:51;11.77;;;6.40;;
25083;SDS011;13075;55.682;37.564;2022-12-18T16:49:17;11.43;;;5.32;;
25083;SDS011;13075;55.682;37.564;2022-12-18T16:51:45;12.25;;;6.28;;
25083;SDS011;13075;55.682;37.564;2022-12-18T16:54:11;13.95;;;6.10;;
25083;SDS011;13075;55.682;37.564;2022-12-18T16:56:37;8.93;;;5.30;;
25083;SDS011;13075;55.682;37.564;2022-12-18T16:59:04;13.65;;;6.25;;
25083;SDS011;13075;55.682;37.564;2022-12-18T17:01:30;12.10;;;6.72;;
25083;SDS011;13075;55.682;37.564;2022-12-18T17:04:03;9.25;;;5.53;;
25083;SDS011;13075;55.682;37.564;2022-12-18T17:09:02;13.65;;;7.13;;
25083;SDS011;13075;55.682;37.564;2022-12-18T17:11:30;10.50;;;6.15;;